createdAt,value
2018-03-18T19:03:32.306Z,101951.70
2018-03-18T19:06:36.470Z,101955.25
2018-03-18T19:09:39.896Z,101955.75
2018-03-18T19:12:43.304Z,101954.66
2018-03-18T19:15:46.744Z,101956.16
2018-03-18T19:18:50.416Z,101956.13
2018-03-18T19:21:53.985Z,101961.03
2018-03-18T19:24:57.440Z,101959.17
2018-03-18T19:28:00.881Z,101963.99
2018-03-18T19:31:04.345Z,101970.41
2018-03-18T19:34:07.810Z,101973.50
2018-03-18T19:37:12.289Z,101965.61
2018-03-18T19:40:15.755Z,101976.03
2018-03-18T19:43:19.964Z,101980.44
2018-03-18T19:46:24.139Z,101978.03
2018-03-18T19:49:27.595Z,101974.41
2018-03-18T19:52:31.964Z,101972.47
2018-03-18T19:55:35.366Z,101967.19
2018-03-18T19:58:38.792Z,101967.84
2018-03-18T20:01:42.437Z,101975.33
2018-03-18T20:04:45.957Z,101970.69
2018-03-18T20:07:49.353Z,101976.76
2018-03-18T20:10:52.903Z,101971.46
2018-03-18T20:13:56.368Z,101969.36
2018-03-18T20:16:59.778Z,101962.97
2018-03-18T20:20:03.144Z,101975.54
2018-03-18T20:23:06.542Z,101969.59
2018-03-18T20:26:10.243Z,101978.73
2018-03-18T20:29:13.630Z,101976.22
2018-03-18T20:32:17.781Z,101976.72
2018-03-18T20:35:21.210Z,101973.17
2018-03-18T20:38:24.630Z,101968.39
2018-03-18T20:41:28.054Z,101976.12
2018-03-18T20:44:32.237Z,101972.77
2018-03-18T20:47:35.681Z,101971.77
2018-03-18T20:50:39.092Z,101973.43
2018-03-18T20:53:42.974Z,101966.84
2018-03-18T20:56:46.979Z,101965.03
2018-03-18T20:59:51.330Z,101964.05
2018-03-18T21:02:54.931Z,101958.55
2018-03-18T21:05:58.385Z,101968.12
2018-03-18T21:09:01.813Z,101968.22
2018-03-18T21:12:05.983Z,101961.30
2018-03-18T21:15:11.076Z,101961.67
2018-03-18T21:18:15.266Z,101970.67
2018-03-18T21:21:19.315Z,101966.83
2018-03-18T21:24:23.333Z,101961.02
2018-03-18T21:27:28.043Z,101955.94
2018-03-18T21:30:32.488Z,101959.91
2018-03-18T21:33:35.956Z,101959.36
2018-03-18T21:36:40.347Z,101955.09
2018-03-18T21:39:45.050Z,101953.82
2018-03-18T21:42:49.449Z,101958.09
2018-03-18T21:45:53.695Z,101956.70
2018-03-18T21:48:57.146Z,101956.09
2018-03-18T21:52:02.311Z,101960.86
2018-03-18T21:55:07.846Z,101946.70
2018-03-18T21:58:11.625Z,101952.74
2018-03-18T22:01:15.374Z,101954.03
2018-03-18T22:04:19.659Z,101952.18
2018-03-18T22:07:23.406Z,101949.73
2018-03-18T22:10:26.790Z,101953.91
2018-03-18T22:13:30.151Z,101949.28
2018-03-18T22:16:33.554Z,101948.45
2018-03-18T22:19:36.915Z,101939.36
2018-03-18T22:22:40.586Z,101954.43
2018-03-18T22:25:45.454Z,101946.90
2018-03-18T22:28:49.586Z,101943.65
2018-03-18T22:31:53.158Z,101939.77
2018-03-18T22:34:57.291Z,101935.98
2018-03-18T22:38:01.634Z,101941.15
2018-03-18T22:41:05.085Z,101941.80
2018-03-18T22:44:09.346Z,101937.91
2018-03-18T22:47:12.723Z,101940.52
2018-03-18T22:50:16.976Z,101943.46
2018-03-18T22:53:20.517Z,101942.63
2018-03-18T22:56:23.870Z,101939.00
2018-03-18T22:59:27.342Z,101934.73
2018-03-18T23:02:30.717Z,101949.34
2018-03-18T23:05:34.162Z,101945.72
2018-03-18T23:08:37.519Z,101945.13
2018-03-18T23:11:42.450Z,101947.19
2018-03-18T23:14:45.864Z,101945.72
2018-03-18T23:17:49.955Z,101946.80
2018-03-18T23:20:53.330Z,101939.25
2018-03-18T23:23:56.981Z,101944.99
2018-03-18T23:27:01.124Z,101944.48
2018-03-18T23:30:05.380Z,101947.54
2018-03-18T23:33:08.867Z,101949.02
2018-03-18T23:36:12.207Z,101946.16
2018-03-18T23:39:15.566Z,101941.89
2018-03-18T23:42:18.951Z,101942.37
2018-03-18T23:45:22.437Z,101939.83
2018-03-18T23:48:26.738Z,101933.66
2018-03-18T23:51:30.155Z,101922.23
2018-03-18T23:54:34.295Z,101925.50
2018-03-18T23:57:37.667Z,101921.87
